SCSE/LSC METAR and TAF weather

Enter ICAO airport designator
Station Type Date Time Source
SCSE METAR 2021/01/20 22:00 UTC NOAA

SCSE 202200Z 29011KT 9999 FEW020 18/13 Q1012


Station Type Date Time Source
SCSE Decoded METAR 2021/01/20 22:00 UTC NOAA

La Serena, Chile (SCSE) 29-54S 071-12W
Jan 20, 2021 - 05:00 PM EST / 2021.01.20 2200 UTC
Wind: from the WNW (290 degrees) at 13 MPH (11 KT):0
Visibility: greater than 7 mile(s):0
Sky conditions: mostly clear
Temperature: 64 F (18 C)
Dew Point: 55 F (13 C)
Relative Humidity: 72%
Pressure (altimeter): 29.88 in. Hg (1012 hPa)
ob: SCSE 202200Z 29011KT 9999 FEW020 18/13 Q1012
cycle: 22

Station Type Date Time Source
SCSE TAF 2021/01/20 18:03 UTC NOAA

TAF TAF SCSE 201610Z 2018/2118 28012KT 9999 BKN017 TX20/2018Z TN14/2111Z
BECMG 2018/2020 SCT020
TEMPO 2020/2100 CAVOK
BECMG 2102/2104 30004KT
BECMG 2104/2106 SCT010 BKN012
BECMG 2113/2115 28006KT BKN015

Example: see airport list